Time;durP1;ratioP1;P1;durP2;ratioP2;P2;SDS_P1;SDS_P2;PMS_P1;PMS_P2;Temp;Humidity;BMP_temperature;BMP_pressure;BME280_temperature;BME280_humidity;BME280_pressure;Samples;Min_cycle;Max_cycle;Signal;HPM_P1;HPM_P2
2021/06/05 00:01:24;;;;;;;11.45;8.93;;;19.60;87.00;;;;;;5090727;28;20058;-78
2021/06/05 00:03:51;;;;;;;14.43;9.45;;;19.60;87.10;;;;;;5102451;28;20099;-78
2021/06/05 00:06:18;;;;;;;12.85;10.32;;;19.60;86.90;;;;;;5112027;28;20027;-78
2021/06/05 00:08:45;;;;;;;17.20;11.88;;;19.60;86.80;;;;;;5112162;28;20031;-78
2021/06/05 00:11:11;;;;;;;16.48;12.38;;;19.50;86.80;;;;;;5113439;28;20028;-78
2021/06/05 00:13:44;;;;;;;14.73;11.70;;;19.40;87.00;;;;;;5113771;28;20023;-78
2021/06/05 00:16:15;;;;;;;12.60;11.32;;;19.40;87.40;;;;;;5113480;28;20070;-78
2021/06/05 00:18:45;;;;;;;13.30;10.55;;;19.40;87.40;;;;;;5113196;28;20349;-78
2021/06/05 00:21:11;;;;;;;9.40;8.38;;;19.40;87.50;;;;;;5095385;28;20472;-78
2021/06/05 00:23:38;;;;;;;9.55;8.55;;;19.30;87.40;;;;;;5112274;28;20028;-78
2021/06/05 00:26:04;;;;;;;10.80;9.73;;;19.40;87.20;;;;;;5111758;28;20039;-78
2021/06/05 00:28:30;;;;;;;12.35;9.57;;;19.40;87.20;;;;;;5093453;28;20372;-87
2021/06/05 00:30:56;;;;;;;13.65;9.48;;;19.40;87.30;;;;;;5093182;28;20032;-86
2021/06/05 00:33:22;;;;;;;9.57;8.57;;;19.30;87.20;;;;;;5087838;28;20078;-86
2021/06/05 00:35:48;;;;;;;9.85;8.85;;;19.30;87.20;;;;;;5095603;28;20125;-86
2021/06/05 00:38:15;;;;;;;8.98;8.18;;;19.30;87.10;;;;;;5113415;28;20047;-86
2021/06/05 00:40:44;;;;;;;12.55;8.43;;;19.30;87.10;;;;;;5095460;28;20024;-86
2021/06/05 00:43:12;;;;;;;10.63;9.15;;;19.30;87.20;;;;;;5095535;28;20019;-87
2021/06/05 00:45:42;;;;;;;10.77;8.70;;;19.30;87.40;;;;;;5110315;28;20028;-86
2021/06/05 00:48:08;;;;;;;10.32;9.00;;;19.30;87.10;;;;;;5093351;28;20070;-86
2021/06/05 00:50:35;;;;;;;12.05;9.38;;;19.30;87.10;;;;;;5093199;28;20055;-86
2021/06/05 00:53:01;;;;;;;11.95;10.00;;;19.30;87.20;;;;;;5075309;28;20037;-86
2021/06/05 00:55:29;;;;;;;11.73;10.57;;;19.20;87.20;;;;;;5075308;28;20032;-87
2021/06/05 00:57:55;;;;;;;12.40;10.33;;;19.20;87.30;;;;;;5102304;28;20127;-86
2021/06/05 01:00:32;;;;;;;11.40;9.85;;;19.20;87.40;;;;;;5113189;28;20368;-86
2021/06/05 01:03:00;;;;;;;13.52;9.95;;;19.20;88.10;;;;;;5075159;28;20489;-86
2021/06/05 01:05:26;;;;;;;12.68;9.88;;;19.20;88.00;;;;;;5075128;28;20111;-86
2021/06/05 01:07:52;;;;;;;12.73;9.60;;;19.20;87.40;;;;;;5092971;28;20181;-86
2021/06/05 01:10:27;;;;;;;13.23;9.82;;;19.20;87.50;;;;;;5093192;28;20024;-87
2021/06/05 01:13:17;;;;;;;16.45;9.77;;;19.20;87.70;;;;;;5080762;28;20353;-87
2021/06/05 01:15:54;;;;;;;15.88;11.75;;;19.20;87.80;;;;;;5117057;28;20031;-87
2021/06/05 01:18:29;;;;;;;10.77;9.75;;;19.10;87.80;;;;;;5098793;28;20536;-86
2021/06/05 01:21:19;;;;;;;12.77;9.50;;;19.20;88.00;;;;;;5095466;28;20046;-86
2021/06/05 01:24:15;;;;;;;11.73;9.48;;;19.10;87.90;;;;;;5104769;28;20055;-86
2021/06/05 01:26:47;;;;;;;12.40;11.23;;;19.10;88.00;;;;;;5117161;28;20023;-87
2021/06/05 01:29:35;;;;;;;12.70;11.32;;;19.10;88.00;;;;;;5116234;28;20024;-86
2021/06/05 01:32:05;;;;;;;12.15;10.77;;;19.00;88.00;;;;;;5098277;28;20082;-86
2021/06/05 01:34:43;;;;;;;15.48;10.52;;;19.00;88.00;;;;;;5086440;28;20032;-86
2021/06/05 01:37:10;;;;;;;12.20;11.00;;;19.00;88.10;;;;;;5096421;28;20024;-86
2021/06/05 01:39:40;;;;;;;14.00;11.15;;;19.00;88.00;;;;;;5098201;28;20371;-86
2021/06/05 01:42:09;;;;;;;14.55;11.63;;;18.90;88.00;;;;;;5098360;28;20016;-86
2021/06/05 01:44:36;;;;;;;11.52;10.27;;;18.90;88.20;;;;;;5098174;28;20507;-86
2021/06/05 01:47:03;;;;;;;14.50;11.75;;;18.90;88.30;;;;;;5093648;28;20023;-86
2021/06/05 01:49:29;;;;;;;12.27;11.05;;;19.00;88.30;;;;;;5098149;28;20026;-86
2021/06/05 01:52:01;;;;;;;16.30;10.68;;;18.90;88.10;;;;;;5098099;28;20027;-85
2021/06/05 01:54:33;;;;;;;17.27;13.40;;;19.00;88.30;;;;;;5116616;28;20026;-86
2021/06/05 01:57:06;;;;;;;12.35;11.05;;;19.00;88.30;;;;;;5116726;28;20594;-85
2021/06/05 01:59:31;;;;;;;13.90;12.15;;;19.00;88.30;;;;;;5097865;28;20036;-86
2021/06/05 02:01:58;;;;;;;12.43;11.13;;;18.90;88.20;;;;;;5116162;28;20038;-85
2021/06/05 02:04:24;;;;;;;13.80;12.07;;;18.90;88.30;;;;;;5098200;28;20024;-86
2021/06/05 02:06:51;;;;;;;12.57;11.13;;;18.90;88.30;;;;;;5114771;28;20106;-86
2021/06/05 02:09:21;;;;;;;14.75;13.25;;;18.90;88.30;;;;;;5116328;28;20031;-85
2021/06/05 02:11:51;;;;;;;14.32;11.50;;;18.80;88.20;;;;;;5089496;28;20028;-86
2021/06/05 02:14:31;;;;;;;13.63;11.93;;;18.80;88.20;;;;;;5095754;28;20473;-86
2021/06/05 02:16:57;;;;;;;16.02;13.77;;;18.80;88.30;;;;;;5095660;28;20140;-86
2021/06/05 02:19:44;;;;;;;13.75;12.35;;;18.80;88.20;;;;;;5095674;28;20063;-86
2021/06/05 02:22:15;;;;;;;14.23;12.10;;;18.70;88.40;;;;;;5110277;28;20042;-86
2021/06/05 02:24:44;;;;;;;16.20;13.43;;;18.70;88.60;;;;;;5097428;28;20024;-85
2021/06/05 02:27:13;;;;;;;13.57;12.25;;;18.70;88.90;;;;;;5115976;28;20481;-86
2021/06/05 02:29:41;;;;;;;15.73;13.90;;;18.70;88.80;;;;;;5115774;28;20016;-85
2021/06/05 02:32:10;;;;;;;16.25;12.98;;;18.70;88.60;;;;;;5115675;28;20048;-85
2021/06/05 02:34:37;;;;;;;18.02;13.35;;;18.70;88.60;;;;;;5104621;28;20032;-86
2021/06/05 02:37:08;;;;;;;20.98;15.95;;;18.70;88.60;;;;;;5086080;28;20396;-86
2021/06/05 02:39:34;;;;;;;13.10;11.43;;;18.70;88.50;;;;;;5102067;28;20111;-86
2021/06/05 02:42:00;;;;;;;14.52;12.20;;;18.60;88.50;;;;;;5115104;28;20034;-86
2021/06/05 02:44:29;;;;;;;15.65;14.05;;;18.60;88.60;;;;;;5115401;28;20062;-86
2021/06/05 02:46:57;;;;;;;17.77;13.57;;;18.50;88.70;;;;;;5097114;28;20391;-86
2021/06/05 02:49:32;;;;;;;15.80;13.47;;;18.50;88.80;;;;;;5080410;28;20439;-86
2021/06/05 02:52:08;;;;;;;16.77;13.30;;;18.50;89.00;;;;;;5097090;28;20035;-85
2021/06/05 02:54:35;;;;;;;16.00;12.98;;;18.50;89.10;;;;;;5112940;28;20030;-85
2021/06/05 02:57:05;;;;;;;18.02;14.25;;;18.50;89.20;;;;;;5090834;28;20019;-86
2021/06/05 02:59:30;;;;;;;17.02;13.45;;;18.50;89.30;;;;;;5115205;28;20019;-86
2021/06/05 03:01:56;;;;;;;17.92;15.15;;;18.50;89.40;;;;;;5115183;28;20043;-86
2021/06/05 03:04:22;;;;;;;18.55;15.10;;;18.50;89.50;;;;;;5080261;28;20110;-86
2021/06/05 03:06:49;;;;;;;20.42;14.75;;;18.50;89.50;;;;;;5096866;28;20051;-86
2021/06/05 03:09:16;;;;;;;16.77;14.00;;;18.50;89.60;;;;;;5115027;28;20484;-86
2021/06/05 03:11:44;;;;;;;17.38;14.77;;;18.50;89.80;;;;;;5076582;28;20067;-86
2021/06/05 03:14:10;;;;;;;24.38;16.45;;;18.60;90.00;;;;;;5094930;28;20032;-85
2021/06/05 03:16:36;;;;;;;19.65;14.90;;;18.60;90.00;;;;;;5099651;28;20081;-86
2021/06/05 03:19:02;;;;;;;18.45;14.88;;;18.60;90.00;;;;;;5059750;28;20115;-85
2021/06/05 03:21:28;;;;;;;17.60;13.00;;;18.70;90.10;;;;;;5076194;28;20031;-86
2021/06/05 03:23:53;;;;;;;24.08;16.58;;;18.70;90.10;;;;;;5086655;28;20472;-85
2021/06/05 03:26:20;;;;;;;20.10;15.63;;;18.70;90.00;;;;;;5100090;28;20028;-86
2021/06/05 03:28:46;;;;;;;22.17;16.35;;;18.70;90.00;;;;;;5103327;28;20060;-86
2021/06/05 03:31:13;;;;;;;21.70;16.27;;;18.80;90.10;;;;;;5096632;28;20418;-85
2021/06/05 03:33:39;;;;;;;20.60;15.35;;;18.70;90.40;;;;;;5114494;28;20027;-86
2021/06/05 03:36:06;;;;;;;27.40;18.17;;;18.70;90.10;;;;;;5077501;28;20042;-85
2021/06/05 03:38:32;;;;;;;23.63;16.80;;;18.80;90.10;;;;;;5090948;28;20031;-86
2021/06/05 03:40:58;;;;;;;24.70;16.73;;;18.80;90.10;;;;;;5114299;28;20547;-85
2021/06/05 03:43:24;;;;;;;22.23;15.77;;;18.90;90.10;;;;;;5086191;28;20277;-85
2021/06/05 03:45:50;;;;;;;26.80;16.55;;;18.90;90.10;;;;;;5112024;28;20039;-86
2021/06/05 03:48:16;;;;;;;24.65;16.88;;;18.80;90.10;;;;;;5101319;28;20035;-86
2021/06/05 03:50:47;;;;;;;24.35;16.80;;;18.80;90.00;;;;;;5096299;28;20032;-86
2021/06/05 03:53:14;;;;;;;24.85;18.63;;;18.80;90.10;;;;;;5107311;28;20035;-85
2021/06/05 03:55:40;;;;;;;28.00;19.42;;;18.80;90.10;;;;;;5095665;28;20115;-86
2021/06/05 03:58:06;;;;;;;29.35;20.30;;;18.80;90.10;;;;;;5096256;28;20035;-86
2021/06/05 04:00:38;;;;;;;32.30;22.83;;;18.80;90.10;;;;;;5095632;28;20378;-85
2021/06/05 04:03:04;;;;;;;30.98;21.27;;;18.80;90.20;;;;;;5112392;28;20404;-86
2021/06/05 04:05:31;;;;;;;29.75;21.75;;;18.80;90.30;;;;;;5108648;28;20027;-86
2021/06/05 04:07:56;;;;;;;31.35;20.80;;;18.90;90.30;;;;;;5097271;28;20384;-86
2021/06/05 04:10:25;;;;;;;47.70;28.90;;;18.90;90.30;;;;;;5095745;28;20019;-86
2021/06/05 04:12:51;;;;;;;38.22;26.67;;;18.90;90.40;;;;;;5113965;28;20020;-86
2021/06/05 04:15:18;;;;;;;43.22;26.92;;;18.90;90.40;;;;;;5101105;28;20107;-86
2021/06/05 04:17:44;;;;;;;70.93;33.00;;;18.90;90.40;;;;;;5097054;28;20475;-86
2021/06/05 04:20:14;;;;;;;45.55;30.42;;;18.90;90.40;;;;;;5113905;28;20055;-85
2021/06/05 04:22:39;;;;;;;47.42;31.92;;;18.90;90.40;;;;;;5112926;28;20063;-86
2021/06/05 04:25:06;;;;;;;62.65;33.35;;;19.00;90.30;;;;;;5093483;28;20062;-86
2021/06/05 04:27:32;;;;;;;48.67;31.58;;;19.00;90.30;;;;;;5093416;28;20027;-85
2021/06/05 04:29:58;;;;;;;54.63;34.70;;;19.00;90.30;;;;;;5075306;28;20024;-86
2021/06/05 04:32:24;;;;;;;54.85;35.22;;;19.00;90.40;;;;;;5079386;28;20032;-86
2021/06/05 04:34:49;;;;;;;58.22;35.80;;;19.00;90.40;;;;;;5095412;28;20043;-86
2021/06/05 04:37:15;;;;;;;64.70;38.58;;;19.00;90.40;;;;;;5097451;28;20528;-85
2021/06/05 04:39:40;;;;;;;53.13;35.58;;;19.00;90.50;;;;;;5075365;28;20021;-86
2021/06/05 04:42:07;;;;;;;55.33;35.03;;;19.00;90.50;;;;;;5093507;28;20079;-85
2021/06/05 04:44:34;;;;;;;63.60;37.90;;;18.90;90.50;;;;;;5075235;28;20093;-85
2021/06/05 04:47:00;;;;;;;56.08;35.67;;;18.90;90.50;;;;;;5094783;28;20023;-86
2021/06/05 04:49:25;;;;;;;63.08;39.05;;;18.90;90.50;;;;;;5115792;28;20032;-84
2021/06/05 04:51:51;;;;;;;60.75;39.97;;;18.90;90.50;;;;;;5093165;28;20119;-85
2021/06/05 04:54:17;;;;;;;69.50;40.35;;;18.90;90.60;;;;;;5117772;28;20031;-85
2021/06/05 04:56:46;;;;;;;55.85;36.70;;;18.90;90.60;;;;;;5117704;28;20086;-85
2021/06/05 04:59:14;;;;;;;66.47;39.55;;;18.90;90.70;;;;;;5117751;28;20086;-85
2021/06/05 05:01:40;;;;;;;71.03;41.93;;;18.90;90.70;;;;;;5117553;28;20047;-85
2021/06/05 05:04:06;;;;;;;82.10;45.17;;;18.90;90.60;;;;;;5085201;28;20119;-84
2021/06/05 05:06:33;;;;;;;59.35;37.85;;;18.90;90.70;;;;;;5079292;28;20028;-86
2021/06/05 05:08:59;;;;;;;61.45;36.75;;;18.90;90.70;;;;;;5089488;28;20120;-86
2021/06/05 05:11:25;;;;;;;59.15;35.33;;;18.90;90.70;;;;;;5117426;28;20100;-86
2021/06/05 05:13:51;;;;;;;66.55;37.42;;;18.90;90.70;;;;;;5117495;28;20023;-85
2021/06/05 05:16:17;;;;;;;71.50;39.67;;;18.90;90.60;;;;;;5099174;28;20034;-85
2021/06/05 05:18:46;;;;;;;59.70;35.30;;;19.00;90.70;;;;;;5098875;28;20425;-85
2021/06/05 05:21:13;;;;;;;65.90;37.45;;;19.00;90.70;;;;;;5117240;28;20088;-86
2021/06/05 05:23:39;;;;;;;62.50;36.60;;;19.00;90.60;;;;;;5117107;28;20024;-85
2021/06/05 05:26:07;;;;;;;60.33;36.35;;;19.00;90.60;;;;;;5117049;28;20547;-85
2021/06/05 05:28:34;;;;;;;54.30;33.83;;;19.10;90.80;;;;;;5093405;28;20051;-85
2021/06/05 05:31:02;;;;;;;60.70;35.55;;;19.10;90.50;;;;;;5116848;28;20035;-85
2021/06/05 05:33:28;;;;;;;59.58;35.38;;;19.10;90.50;;;;;;5110392;28;20050;-86
2021/06/05 05:35:56;;;;;;;60.75;35.00;;;19.10;90.50;;;;;;5101481;28;20506;-86
2021/06/05 05:38:23;;;;;;;61.40;36.30;;;19.10;90.60;;;;;;5098148;28;20028;-85
2021/06/05 05:40:50;;;;;;;64.75;34.60;;;19.10;90.50;;;;;;5098329;28;20123;-86
2021/06/05 05:43:16;;;;;;;68.90;38.45;;;19.20;90.60;;;;;;5116783;28;20051;-85
2021/06/05 05:45:42;;;;;;;62.72;34.35;;;19.20;90.50;;;;;;5108264;28;20032;-85
2021/06/05 05:48:11;;;;;;;64.38;35.65;;;19.20;90.50;;;;;;5113266;28;20034;-85
2021/06/05 05:50:39;;;;;;;59.78;35.65;;;19.20;90.60;;;;;;5116282;28;20036;-85
2021/06/05 05:53:05;;;;;;;65.07;36.70;;;19.20;90.60;;;;;;5098411;28;20044;-86
2021/06/05 05:55:32;;;;;;;66.30;35.67;;;19.30;90.60;;;;;;5116492;28;20043;-85
2021/06/05 05:58:10;;;;;;;80.40;41.45;;;19.30;90.50;;;;;;5098128;28;20028;-86
2021/06/05 06:00:39;;;;;;;65.15;36.33;;;19.40;90.50;;;;;;5095347;28;20051;-86
2021/06/05 06:03:05;;;;;;;84.75;41.40;;;19.40;90.60;;;;;;5082886;28;20028;-85
2021/06/05 06:05:31;;;;;;;55.60;34.42;;;19.40;90.60;;;;;;5115225;28;20040;-86
2021/06/05 06:07:57;;;;;;;69.35;37.95;;;19.40;90.60;;;;;;5115176;28;20081;-85
2021/06/05 06:10:23;;;;;;;67.50;37.72;;;19.40;90.50;;;;;;5097036;28;20059;-86
2021/06/05 06:12:50;;;;;;;66.40;35.90;;;19.40;90.60;;;;;;5109762;28;20065;-86
2021/06/05 06:15:19;;;;;;;65.13;37.67;;;19.40;90.90;;;;;;5094747;28;20028;-86
2021/06/05 06:17:45;;;;;;;59.33;35.60;;;19.50;90.60;;;;;;5094652;28;20587;-85
2021/06/05 06:20:19;;;;;;;56.65;33.88;;;19.50;90.60;;;;;;5076722;28;20056;-86
2021/06/05 06:22:45;;;;;;;55.03;33.25;;;19.60;90.50;;;;;;5094950;28;20107;-86
2021/06/05 06:25:13;;;;;;;52.92;33.20;;;19.60;90.50;;;;;;5076498;28;20056;-86
2021/06/05 06:27:39;;;;;;;51.20;33.22;;;19.60;90.40;;;;;;5106561;28;20050;-86
2021/06/05 06:30:08;;;;;;;58.75;36.10;;;19.70;90.30;;;;;;5096508;28;20051;-86
2021/06/05 06:32:34;;;;;;;61.20;35.03;;;19.70;90.40;;;;;;5080021;28;20032;-87
2021/06/05 06:34:59;;;;;;;61.65;37.30;;;19.70;90.60;;;;;;5096574;28;20027;-87
2021/06/05 06:37:25;;;;;;;55.35;34.78;;;19.70;90.30;;;;;;5114765;28;20064;-86
2021/06/05 06:39:51;;;;;;;57.40;35.92;;;19.70;90.30;;;;;;5096551;28;20028;-86
2021/06/05 06:42:16;;;;;;;67.13;36.85;;;19.60;90.30;;;;;;5105961;28;20495;-87
2021/06/05 06:44:43;;;;;;;63.00;35.75;;;19.60;90.30;;;;;;5103599;28;20035;-86
2021/06/05 06:47:09;;;;;;;61.33;37.58;;;19.60;90.40;;;;;;5114542;28;20020;-86
2021/06/05 06:49:35;;;;;;;56.97;34.88;;;19.60;90.40;;;;;;5114523;28;20515;-86
2021/06/05 06:52:01;;;;;;;62.92;36.53;;;19.60;90.50;;;;;;5114461;28;20035;-87
2021/06/05 06:54:26;;;;;;;57.67;35.55;;;19.60;90.50;;;;;;5112254;28;20106;-89
2021/06/05 06:56:52;;;;;;;63.80;39.03;;;19.60;90.50;;;;;;5096457;28;20114;-90
2021/06/05 06:59:18;;;;;;;62.92;37.83;;;19.60;90.50;;;;;;5096169;28;20028;-90
2021/06/05 07:01:43;;;;;;;82.90;43.33;;;19.60;90.50;;;;;;5092779;28;87638;-90
2021/06/05 07:04:10;;;;;;;71.55;41.50;;;19.60;90.60;;;;;;5090671;28;20027;-90
2021/06/05 07:06:36;;;;;;;80.05;43.95;;;19.60;90.70;;;;;;5097256;28;20034;-90
2021/06/05 07:09:02;;;;;;;101.93;53.10;;;19.60;90.80;;;;;;5080103;28;20032;-88
2021/06/05 07:11:31;;;;;;;144.50;66.88;;;19.50;90.80;;;;;;5112577;28;20088;-92
2021/06/05 07:13:58;;;;;;;136.68;64.38;;;19.50;90.80;;;;;;5108630;28;20491;-90
2021/06/05 07:16:31;;;;;;;124.07;67.65;;;19.40;90.80;;;;;;5095258;28;20028;-90
2021/06/05 07:18:57;;;;;;;144.50;72.95;;;19.40;90.90;;;;;;5095367;28;20061;-90
2021/06/05 07:21:23;;;;;;;139.93;71.10;;;19.40;91.00;;;;;;5094739;28;20477;-87
2021/06/05 07:23:48;;;;;;;200.90;88.55;;;19.40;91.00;;;;;;5094728;28;20180;-89
2021/06/05 07:26:20;;;;;;;158.05;80.47;;;19.30;90.90;;;;;;5076570;28;20228;-89
2021/06/05 07:28:50;;;;;;;147.02;81.25;;;19.30;90.90;;;;;;5095048;28;20052;-90
2021/06/05 07:31:25;;;;;;;158.30;82.53;;;19.30;90.90;;;;;;5076637;28;20024;-91
2021/06/05 07:33:51;;;;;;;182.80;90.95;;;19.20;90.90;;;;;;5083701;28;20051;-89
2021/06/05 07:36:24;;;;;;;158.23;80.45;;;19.20;91.00;;;;;;5074148;28;20454;-88
2021/06/05 07:38:50;;;;;;;201.80;88.70;;;19.20;91.40;;;;;;5076288;28;20024;-89
2021/06/05 07:41:16;;;;;;;154.25;78.90;;;19.20;91.10;;;;;;5104929;28;20038;-88
2021/06/05 07:43:41;;;;;;;193.40;90.20;;;19.10;91.10;;;;;;5106131;28;20028;-88
2021/06/05 07:46:07;;;;;;;180.55;88.63;;;19.10;91.10;;;;;;5114515;28;20517;-88
2021/06/05 07:48:35;;;;;;;158.77;81.32;;;19.10;91.20;;;;;;5095961;28;20114;-88
2021/06/05 07:51:01;;;;;;;176.50;90.05;;;19.10;91.30;;;;;;5095726;28;20031;-88
2021/06/05 07:53:27;;;;;;;176.25;90.07;;;19.10;91.30;;;;;;5113884;28;20039;-90
2021/06/05 07:55:53;;;;;;;180.23;89.72;;;19.10;91.30;;;;;;5096232;28;20389;-89
2021/06/05 07:58:19;;;;;;;177.48;91.70;;;19.10;91.30;;;;;;5114184;28;20031;-87
2021/06/05 08:00:45;;;;;;;170.75;91.07;;;19.10;91.20;;;;;;5078701;28;20032;-88
2021/06/05 08:03:10;;;;;;;216.00;99.07;;;19.20;91.30;;;;;;5113773;28;20107;-87
2021/06/05 08:05:38;;;;;;;177.15;94.70;;;19.20;91.20;;;;;;5113745;28;20396;-84
2021/06/05 08:08:06;;;;;;;182.45;91.75;;;19.20;91.30;;;;;;5113362;28;20023;-90
2021/06/05 08:10:32;;;;;;;169.35;88.72;;;19.20;91.30;;;;;;5066721;28;20115;-90
2021/06/05 08:12:58;;;;;;;149.02;79.93;;;19.20;91.30;;;;;;5075273;28;20039;-87
2021/06/05 08:15:27;;;;;;;149.70;81.32;;;19.20;91.30;;;;;;5093242;28;20063;-85
2021/06/05 08:17:53;;;;;;;;;;;19.20;91.30;;;;;;5112331;28;20030;-88
2021/06/05 08:20:23;;;;;;;151.57;81.90;;;19.20;91.10;;;;;;5095393;28;19904;-91
2021/06/05 08:22:49;;;;;;;152.80;81.28;;;19.20;91.30;;;;;;5095766;28;20036;-90
2021/06/05 08:25:15;;;;;;;142.05;79.68;;;19.20;91.20;;;;;;5087115;28;20047;-88
2021/06/05 08:27:43;;;;;;;150.18;80.55;;;19.20;91.20;;;;;;5066915;28;20020;-89
2021/06/05 08:30:24;;;;;;;119.13;70.28;;;19.20;91.20;;;;;;5108184;28;20173;-88
2021/06/05 08:32:50;;;;;;;123.78;72.22;;;19.20;91.20;;;;;;5104461;28;20511;-90
2021/06/05 08:35:16;;;;;;;106.50;65.43;;;19.20;91.20;;;;;;5097245;28;20051;-91
2021/06/05 08:37:42;;;;;;;123.43;66.03;;;19.10;91.20;;;;;;5111499;28;20032;-86
2021/06/05 08:40:12;;;;;;;117.70;67.18;;;19.20;91.20;;;;;;5110767;28;20490;-89
2021/06/05 08:42:49;;;;;;;104.35;66.43;;;19.20;91.20;;;;;;5108503;28;20023;-89
2021/06/05 08:45:19;;;;;;;106.25;62.92;;;19.20;91.30;;;;;;5113444;28;20074;-87
2021/06/05 08:47:45;;;;;;;117.60;67.40;;;19.10;91.50;;;;;;5113747;28;20028;-87
2021/06/05 08:50:23;;;;;;;95.22;59.85;;;19.20;91.20;;;;;;5095606;28;20537;-87
2021/06/05 08:52:52;;;;;;;98.20;63.40;;;19.20;91.30;;;;;;5102407;28;20022;-87
2021/06/05 08:55:21;;;;;;;111.32;65.40;;;19.20;91.20;;;;;;5112955;28;20023;-86
2021/06/05 08:58:00;;;;;;;113.38;66.30;;;19.30;91.20;;;;;;5109915;28;20048;-91
2021/06/05 09:00:40;;;;;;;93.25;59.55;;;19.30;91.20;;;;;;5085132;28;20024;-93
2021/06/05 09:03:17;;;;;;;107.88;63.30;;;19.30;91.20;;;;;;5085963;28;20388;-87
2021/06/05 09:06:01;;;;;;;106.70;64.78;;;19.40;91.10;;;;;;5108398;28;21707;-90
2021/06/05 09:08:29;;;;;;;93.68;59.78;;;19.40;91.10;;;;;;5076551;28;20024;-93
2021/06/05 09:10:59;;;;;;;117.13;67.88;;;19.30;91.10;;;;;;5114778;28;20084;-94
2021/06/05 09:13:25;;;;;;;106.47;64.00;;;19.30;91.10;;;;;;5097024;28;20020;-92
2021/06/05 09:16:19;;;;;;;100.85;61.42;;;19.30;91.00;;;;;;5110757;28;20031;-91
2021/06/05 09:19:11;;;;;;;115.25;68.22;;;19.30;91.00;;;;;;5102965;28;20054;-90
2021/06/05 09:21:38;;;;;;;95.35;60.00;;;19.40;91.10;;;;;;5093646;28;20077;-91
2021/06/05 09:24:16;;;;;;;110.70;65.78;;;19.30;91.00;;;;;;5113493;28;20068;-84
2021/06/05 09:26:59;;;;;;;110.43;67.07;;;19.40;91.10;;;;;;5106027;28;20114;-85
2021/06/05 09:29:25;;;;;;;106.35;64.13;;;19.40;91.00;;;;;;5111533;28;20069;-90
2021/06/05 09:32:01;;;;;;;111.60;65.00;;;19.40;91.20;;;;;;5096938;28;20032;-88
2021/06/05 09:34:37;;;;;;;105.88;62.85;;;19.40;91.00;;;;;;5097114;28;20019;-90
2021/06/05 09:37:04;;;;;;;110.03;62.40;;;19.50;91.10;;;;;;5117672;28;20032;-89
2021/06/05 09:39:57;;;;;;;137.70;71.75;;;19.50;90.90;;;;;;5117409;28;20030;-89
2021/06/05 09:42:31;;;;;;;112.63;61.70;;;19.50;90.90;;;;;;5078697;28;20111;-88
2021/06/05 09:44:59;;;;;;;113.93;61.85;;;19.50;91.00;;;;;;5099126;28;20024;-89
2021/06/05 09:47:28;;;;;;;125.78;65.13;;;19.50;91.00;;;;;;5099069;28;20031;-90
2021/06/05 09:50:17;;;;;;;104.25;57.20;;;19.50;91.00;;;;;;5116489;28;20043;-88
2021/06/05 09:52:43;;;;;;;102.55;55.92;;;19.50;91.00;;;;;;5117613;28;20031;-89
2021/06/05 09:55:15;;;;;;;118.55;62.10;;;19.50;90.90;;;;;;5095159;28;20067;-89
2021/06/05 09:57:47;;;;;;;122.95;61.92;;;19.60;90.80;;;;;;5095388;28;20016;-89
2021/06/05 10:00:32;;;;;;;119.03;60.42;;;19.60;90.80;;;;;;5117208;28;20035;-89
2021/06/05 10:03:30;;;;;;;115.05;58.10;;;19.70;90.80;;;;;;5075468;28;20040;-89
2021/06/05 10:05:56;;;;;;;100.53;53.53;;;19.80;90.50;;;;;;5064699;28;20086;-89
2021/06/05 10:08:36;;;;;;;109.22;54.88;;;19.80;90.20;;;;;;5076177;28;20259;-91
2021/06/05 10:11:15;;;;;;;97.50;51.53;;;19.90;90.20;;;;;;5084990;28;20029;-92
2021/06/05 10:13:44;;;;;;;93.13;49.55;;;19.90;89.80;;;;;;5056353;28;20033;-91
2021/06/05 10:16:15;;;;;;;96.43;49.40;;;19.80;89.90;;;;;;5056479;28;20025;-91
2021/06/05 10:18:57;;;;;;;100.57;52.67;;;19.80;89.90;;;;;;5088774;28;20049;-90
2021/06/05 10:21:37;;;;;;;95.63;50.22;;;19.80;89.80;;;;;;5055948;28;20037;-90
2021/06/05 10:24:12;;;;;;;103.97;53.45;;;19.80;89.80;;;;;;5074929;28;20025;-90
2021/06/05 10:26:42;;;;;;;100.28;52.83;;;19.80;89.70;;;;;;5069241;28;20032;-91
2021/06/05 10:29:29;;;;;;;95.00;50.45;;;19.80;89.80;;;;;;5075022;28;20117;-90
2021/06/05 10:31:58;;;;;;;92.68;47.70;;;19.80;89.90;;;;;;5074471;28;20033;-89
2021/06/05 10:34:40;;;;;;;100.50;50.72;;;19.80;89.80;;;;;;5074225;28;20031;-88
2021/06/05 10:37:11;;;;;;;90.82;49.45;;;19.80;89.90;;;;;;5087642;28;20392;-87
2021/06/05 10:39:41;;;;;;;111.20;51.80;;;19.80;90.20;;;;;;5071784;28;20035;-89
2021/06/05 10:42:22;;;;;;;100.40;51.85;;;19.80;90.00;;;;;;5055251;28;20025;-88
2021/06/05 10:44:48;;;;;;;120.32;57.65;;;19.80;90.00;;;;;;5065507;28;20389;-89
2021/06/05 10:47:31;;;;;;;95.45;51.25;;;19.80;89.90;;;;;;5055888;28;20029;-78
2021/06/05 10:49:56;;;;;;;102.93;54.22;;;19.80;89.90;;;;;;5072155;28;20048;-79
2021/06/05 10:52:39;;;;;;;103.68;52.58;;;19.70;90.00;;;;;;5079270;28;20067;-79
2021/06/05 10:55:07;;;;;;;88.25;48.75;;;19.70;90.00;;;;;;5065653;28;20388;-79
2021/06/05 10:57:41;;;;;;;93.10;49.58;;;19.60;90.20;;;;;;5080431;28;20115;-79
2021/06/05 11:00:25;;;;;;;120.15;56.20;;;19.70;90.20;;;;;;5070090;28;20034;-78
2021/06/05 11:02:56;;;;;;;103.93;52.97;;;19.60;90.20;;;;;;5111219;28;20051;-79
2021/06/05 11:05:29;;;;;;;106.18;54.35;;;19.60;90.40;;;;;;5115057;28;20023;-79
2021/06/05 11:08:13;;;;;;;100.03;50.70;;;19.60;90.40;;;;;;5114185;28;20076;-79
2021/06/05 11:10:46;;;;;;;106.43;52.25;;;19.60;90.30;;;;;;5112388;28;20073;-79
2021/06/05 11:13:32;;;;;;;108.10;53.67;;;19.60;90.30;;;;;;5107411;28;20020;-75
2021/06/05 11:16:03;;;;;;;98.50;50.97;;;19.50;90.40;;;;;;5112863;28;20039;-75
2021/06/05 11:18:28;;;;;;;91.10;46.95;;;19.50;90.40;;;;;;5098064;28;20563;-75
2021/06/05 11:20:54;;;;;;;102.55;49.83;;;19.50;90.70;;;;;;5080495;28;20131;-75
2021/06/05 11:23:22;;;;;;;89.15;45.38;;;19.50;90.50;;;;;;5081830;28;20027;-75
2021/06/05 11:25:50;;;;;;;89.40;45.78;;;19.50;90.50;;;;;;5084919;28;20041;-76
2021/06/05 11:28:31;;;;;;;84.05;45.58;;;19.50;90.60;;;;;;5094755;28;20036;-75
2021/06/05 11:30:57;;;;;;;88.68;46.22;;;19.60;90.70;;;;;;5105590;28;20016;-77
2021/06/05 11:33:44;;;;;;;75.57;40.95;;;19.50;90.60;;;;;;5063208;28;20073;-78
2021/06/05 11:36:41;;;;;;;90.30;46.20;;;19.60;90.60;;;;;;5097551;28;20028;-77
2021/06/05 11:39:32;;;;;;;85.40;42.13;;;19.60;90.50;;;;;;5076126;28;20053;-77
2021/06/05 11:42:18;;;;;;;80.95;43.10;;;19.60;90.50;;;;;;5075898;28;20024;-77
2021/06/05 11:44:46;;;;;;;86.68;48.03;;;19.50;90.50;;;;;;5079444;28;20026;-77
2021/06/05 11:47:18;;;;;;;85.70;45.43;;;19.60;90.50;;;;;;5100195;28;20031;-78
2021/06/05 11:50:02;;;;;;;84.47;44.85;;;19.50;90.60;;;;;;5081042;28;20019;-78
2021/06/05 11:52:33;;;;;;;82.63;44.35;;;19.50;90.50;;;;;;5099819;28;20073;-78
2021/06/05 11:55:08;;;;;;;86.20;44.63;;;19.50;90.60;;;;;;5080391;28;20495;-77
2021/06/05 11:57:39;;;;;;;83.32;42.83;;;19.50;90.60;;;;;;5075713;28;20027;-77
2021/06/05 12:00:32;;;;;;;70.72;39.60;;;19.50;90.70;;;;;;5096198;28;20064;-78
2021/06/05 12:03:09;;;;;;;64.68;37.80;;;19.40;90.70;;;;;;5094919;28;20044;-78
2021/06/05 12:05:42;;;;;;;80.63;43.03;;;19.50;90.70;;;;;;5088174;28;20119;-78
2021/06/05 12:08:25;;;;;;;73.10;41.03;;;19.50;90.60;;;;;;5093966;28;20102;-78
2021/06/05 12:10:53;;;;;;;78.70;43.08;;;19.40;90.70;;;;;;5086687;28;20029;-78
2021/06/05 12:13:33;;;;;;;79.78;45.60;;;19.50;90.70;;;;;;5112905;28;20059;-83
2021/06/05 12:16:13;;;;;;;73.57;43.05;;;19.40;90.70;;;;;;5114051;28;20028;-82
2021/06/05 12:18:39;;;;;;;85.18;44.25;;;19.40;90.80;;;;;;5112284;28;20462;-83
2021/06/05 12:21:30;;;;;;;82.80;46.03;;;19.40;90.80;;;;;;5091483;28;20035;-78
2021/06/05 12:23:57;;;;;;;89.32;46.83;;;19.40;90.90;;;;;;5083803;28;20502;-83
2021/06/05 12:26:26;;;;;;;102.60;50.28;;;19.30;91.00;;;;;;5087096;28;20023;-83
2021/06/05 12:28:53;;;;;;;105.93;51.22;;;19.30;91.00;;;;;;5102869;28;20375;-84
2021/06/05 12:31:31;;;;;;;86.30;45.97;;;19.30;91.00;;;;;;5102148;28;20107;-81
2021/06/05 12:34:08;;;;;;;82.97;43.97;;;19.20;91.00;;;;;;5100811;28;20384;-78
2021/06/05 12:36:40;;;;;;;76.45;40.25;;;19.20;91.00;;;;;;5104833;28;20265;-82
2021/06/05 12:39:23;;;;;;;81.38;42.63;;;19.20;90.90;;;;;;5102751;28;20027;-81
2021/06/05 12:41:50;;;;;;;88.97;44.30;;;19.30;90.90;;;;;;5096057;28;20050;-84